createdAt,value
2022-11-24T00:02:23.984Z,3.28
2022-11-24T00:06:07.646Z,2.20
2022-11-24T00:09:49.388Z,1.65
2022-11-24T00:13:31.263Z,2.03
2022-11-24T00:17:12.989Z,1.70
2022-11-24T00:20:54.706Z,1.73
2022-11-24T00:24:36.578Z,1.80
2022-11-24T00:28:18.354Z,1.42
2022-11-24T00:32:01.949Z,1.60
2022-11-24T00:35:43.661Z,1.40
2022-11-24T00:39:25.376Z,2.47
2022-11-24T00:43:07.114Z,2.28
2022-11-24T00:46:49.016Z,1.80
2022-11-24T00:50:31.282Z,1.45
2022-11-24T00:54:13.026Z,2.03
2022-11-24T00:57:54.897Z,2.17
2022-11-24T01:01:36.908Z,1.85
2022-11-24T01:05:19.196Z,2.42
2022-11-24T01:09:01.338Z,2.53
2022-11-24T01:12:43.101Z,2.78
2022-11-24T01:16:31.308Z,2.38
2022-11-24T01:20:13.450Z,2.90
2022-11-24T01:23:55.287Z,2.92
2022-11-24T01:27:37.885Z,2.92
2022-11-24T01:31:19.674Z,3.50
2022-11-24T01:35:01.711Z,3.03
2022-11-24T01:38:43.516Z,3.38
2022-11-24T01:42:25.593Z,3.45
2022-11-24T01:46:32.106Z,4.07
2022-11-24T01:50:16.609Z,4.20
2022-11-24T01:54:04.818Z,4.35
2022-11-24T01:57:53.254Z,4.07
2022-11-24T02:01:35.152Z,3.38
2022-11-24T02:05:32.943Z,3.60
2022-11-24T02:09:31.254Z,3.63
2022-11-24T02:13:14.743Z,4.43
2022-11-24T02:16:56.487Z,4.53
2022-11-24T02:20:38.388Z,4.90
2022-11-24T02:24:29.601Z,4.35
2022-11-24T02:28:16.296Z,4.57
2022-11-24T02:32:06.204Z,3.95
2022-11-24T02:35:47.922Z,3.97
2022-11-24T02:39:29.679Z,3.95
2022-11-24T02:43:16.256Z,4.90
2022-11-24T02:47:07.178Z,5.13
2022-11-24T02:50:48.996Z,4.10
2022-11-24T02:54:31.052Z,4.35
2022-11-24T02:58:14.862Z,4.25
2022-11-24T03:01:56.735Z,3.92
2022-11-24T03:05:38.636Z,4.40
2022-11-24T03:09:20.545Z,4.50
2022-11-24T03:13:02.299Z,4.88
2022-11-24T03:16:44.071Z,3.92
2022-11-24T03:20:26.406Z,4.22
2022-11-24T03:24:08.162Z,3.90
2022-11-24T03:27:49.942Z,5.32
2022-11-24T03:31:31.724Z,4.88
2022-11-24T03:35:13.478Z,4.32
2022-11-24T03:38:55.271Z,3.95
2022-11-24T03:42:36.986Z,4.85
2022-11-24T03:46:18.835Z,5.28
2022-11-24T03:50:00.845Z,5.03
2022-11-24T03:53:42.611Z,4.93
2022-11-24T03:57:24.373Z,4.40
2022-11-24T04:01:06.095Z,5.93
2022-11-24T04:04:50.653Z,4.47
2022-11-24T04:08:32.419Z,4.95
2022-11-24T04:12:32.744Z,4.07
2022-11-24T04:16:14.585Z,4.28
2022-11-24T04:19:56.344Z,5.10
2022-11-24T04:23:38.120Z,5.57
2022-11-24T04:27:19.882Z,3.97
2022-11-24T04:31:05.927Z,5.63
2022-11-24T04:34:47.686Z,4.60
2022-11-24T04:39:23.026Z,4.45
2022-11-24T04:42:31.153Z,3.67
2022-11-24T04:46:12.988Z,5.45
2022-11-24T04:49:54.985Z,4.97
2022-11-24T04:53:36.823Z,4.80
2022-11-24T04:57:21.264Z,4.78
2022-11-24T05:01:07.035Z,4.55
2022-11-24T05:04:49.283Z,4.45
2022-11-24T05:08:31.070Z,4.72
2022-11-24T05:12:12.827Z,5.32
2022-11-24T05:15:54.583Z,4.55
2022-11-24T05:19:36.370Z,5.70
2022-11-24T05:23:18.392Z,5.13
2022-11-24T05:27:00.190Z,5.63
2022-11-24T05:30:42.287Z,5.68
2022-11-24T05:34:24.564Z,5.38
2022-11-24T05:38:06.558Z,5.50
2022-11-24T05:41:48.276Z,4.47
2022-11-24T05:45:30.489Z,4.93
2022-11-24T05:49:12.238Z,4.78
2022-11-24T05:52:53.947Z,5.47
2022-11-24T05:56:35.682Z,5.00
2022-11-24T06:00:18.253Z,4.90
2022-11-24T06:04:00.002Z,5.03
2022-11-24T06:07:42.075Z,5.75
2022-11-24T06:11:23.906Z,5.93
2022-11-24T06:15:06.149Z,7.18
2022-11-24T06:18:47.873Z,4.78
2022-11-24T06:22:29.587Z,7.00
2022-11-24T06:26:11.331Z,5.38
2022-11-24T06:29:53.046Z,5.38
2022-11-24T06:33:36.467Z,5.28
2022-11-24T06:37:18.267Z,5.68
2022-11-24T06:41:06.317Z,6.03
2022-11-24T06:44:48.163Z,5.80
2022-11-24T06:48:30.443Z,5.22
2022-11-24T06:52:12.221Z,5.63
2022-11-24T06:55:57.233Z,4.68
2022-11-24T06:59:38.937Z,6.00
2022-11-24T07:03:20.838Z,4.93
2022-11-24T07:07:03.079Z,3.78
2022-11-24T07:10:45.489Z,4.25
2022-11-24T07:14:27.274Z,4.82
2022-11-24T07:18:09.013Z,5.80
2022-11-24T07:21:50.748Z,6.40
2022-11-24T07:25:32.446Z,8.10
2022-11-24T07:29:14.218Z,6.72
2022-11-24T07:33:03.338Z,6.88
2022-11-24T07:36:45.227Z,7.03
2022-11-24T07:40:27.542Z,5.65
2022-11-24T07:44:09.341Z,6.90
2022-11-24T07:47:51.205Z,6.75
2022-11-24T07:51:32.958Z,6.65
2022-11-24T07:55:14.743Z,7.63
2022-11-24T07:58:56.455Z,7.75
2022-11-24T08:02:38.450Z,6.97
2022-11-24T08:06:27.205Z,7.55
2022-11-24T08:10:12.243Z,7.30
2022-11-24T08:13:54.062Z,8.02
2022-11-24T08:17:35.999Z,8.40
2022-11-24T08:21:17.840Z,8.25
2022-11-24T08:24:59.680Z,8.10
2022-11-24T08:28:42.062Z,8.63
2022-11-24T08:32:23.861Z,8.43
2022-11-24T08:36:08.351Z,9.60
2022-11-24T08:39:51.704Z,10.27
2022-11-24T08:43:33.570Z,9.10
2022-11-24T08:47:15.306Z,8.27
2022-11-24T08:50:57.807Z,9.32
2022-11-24T08:54:40.820Z,8.65
2022-11-24T08:58:22.550Z,9.80
2022-11-24T09:02:06.237Z,23.02
2022-11-24T09:05:52.497Z,16.02
2022-11-24T09:09:34.570Z,8.40
2022-11-24T09:13:16.307Z,10.82
2022-11-24T09:16:58.161Z,8.32
2022-11-24T09:20:40.657Z,8.07
2022-11-24T09:24:22.429Z,8.25
2022-11-24T09:28:04.301Z,9.77
2022-11-24T09:31:46.059Z,10.95
2022-11-24T09:35:27.780Z,8.10
2022-11-24T09:39:10.948Z,10.55
2022-11-24T09:43:05.954Z,8.35
2022-11-24T09:47:09.910Z,8.23
2022-11-24T09:50:53.097Z,9.10
2022-11-24T09:54:35.658Z,9.05
2022-11-24T09:58:48.412Z,8.18
2022-11-24T10:02:30.128Z,9.15
2022-11-24T10:06:34.611Z,7.40
2022-11-24T10:10:24.813Z,7.75
2022-11-24T10:14:18.983Z,7.10
2022-11-24T10:18:03.526Z,7.82
2022-11-24T10:22:00.879Z,6.15
2022-11-24T10:25:58.808Z,7.82
2022-11-24T10:29:42.580Z,7.63
2022-11-24T10:33:30.607Z,6.50
2022-11-24T10:37:42.696Z,5.68
2022-11-24T10:41:42.242Z,6.15
2022-11-24T10:45:26.620Z,7.00
2022-11-24T10:49:22.755Z,7.45
2022-11-24T10:53:16.083Z,5.83
2022-11-24T10:56:57.995Z,7.18
2022-11-24T11:00:39.713Z,7.25
2022-11-24T11:04:26.013Z,7.57
2022-11-24T11:08:22.239Z,7.43
2022-11-24T11:12:42.677Z,6.82
2022-11-24T11:16:36.197Z,7.15
2022-11-24T11:20:22.500Z,6.47
2022-11-24T11:24:17.049Z,7.17
2022-11-24T11:28:18.278Z,7.75
2022-11-24T11:36:10.881Z,6.65
2022-11-24T11:39:55.078Z,6.22
2022-11-24T11:43:40.790Z,5.93
2022-11-24T11:47:28.833Z,6.38
2022-11-24T11:51:36.647Z,7.18
2022-11-24T11:55:37.241Z,7.93
2022-11-24T11:59:31.724Z,5.53
2022-11-24T12:03:35.046Z,5.72
2022-11-24T12:07:42.907Z,7.60
2022-11-24T12:11:47.713Z,6.07
2022-11-24T12:15:47.229Z,6.28
2022-11-24T12:19:55.901Z,5.75
2022-11-24T12:24:18.955Z,6.50
2022-11-24T12:28:09.839Z,6.30
2022-11-24T12:32:00.551Z,5.97
2022-11-24T12:35:52.055Z,6.57
2022-11-24T12:40:01.576Z,6.40
2022-11-24T12:43:52.949Z,5.97
2022-11-24T12:48:05.992Z,6.35
2022-11-24T12:51:55.358Z,6.63
2022-11-24T12:55:38.234Z,5.57
2022-11-24T12:59:34.746Z,6.70
2022-11-24T13:03:31.523Z,7.10
2022-11-24T13:07:25.031Z,5.85
2022-11-24T13:11:21.873Z,6.10
2022-11-24T13:19:21.616Z,5.97
2022-11-24T13:23:05.037Z,4.38
2022-11-24T13:26:49.897Z,5.03
2022-11-24T13:30:34.651Z,4.38
2022-11-24T13:34:45.599Z,5.93
2022-11-24T13:38:54.407Z,4.97
2022-11-24T13:42:56.262Z,4.57
2022-11-24T13:47:06.527Z,6.00
2022-11-24T13:50:54.918Z,4.85
2022-11-24T13:54:41.722Z,5.13
2022-11-24T13:58:31.019Z,5.90
2022-11-24T14:02:23.319Z,4.65
2022-11-24T14:06:05.754Z,4.53
2022-11-24T14:09:50.894Z,4.07
2022-11-24T14:13:33.504Z,3.05
2022-11-24T14:17:21.349Z,2.95
2022-11-24T14:21:24.873Z,2.58
2022-11-24T14:25:36.833Z,2.03
2022-11-24T14:29:21.632Z,2.70
2022-11-24T14:33:04.306Z,3.22
2022-11-24T14:36:46.118Z,3.35
2022-11-24T14:40:46.613Z,5.35
2022-11-24T14:44:54.343Z,3.70
2022-11-24T14:48:46.830Z,4.43
2022-11-24T14:52:28.541Z,3.75
2022-11-24T14:56:26.372Z,4.25
2022-11-24T15:00:09.334Z,3.25
2022-11-24T15:04:17.885Z,4.40
2022-11-24T15:08:14.356Z,3.45
2022-11-24T15:11:57.215Z,3.17
2022-11-24T15:15:39.593Z,4.38
2022-11-24T15:19:28.202Z,3.92
2022-11-24T15:23:26.204Z,3.55
2022-11-24T15:27:07.986Z,3.58
2022-11-24T15:30:49.711Z,3.00
2022-11-24T15:34:31.426Z,2.75
2022-11-24T15:38:13.954Z,3.33
2022-11-24T15:41:55.712Z,3.40
2022-11-24T15:45:37.428Z,3.70
2022-11-24T15:49:19.156Z,3.65
2022-11-24T15:53:00.878Z,3.13
2022-11-24T15:56:44.398Z,3.80
2022-11-24T16:00:26.237Z,3.55
2022-11-24T16:04:08.261Z,3.80
2022-11-24T16:07:50.005Z,4.22
2022-11-24T16:11:31.834Z,3.65
2022-11-24T16:15:13.556Z,3.80
2022-11-24T16:18:55.301Z,3.53
2022-11-24T16:22:36.990Z,5.07
2022-11-24T16:26:18.992Z,6.47
2022-11-24T16:30:01.719Z,6.22
2022-11-24T16:33:44.871Z,8.07
2022-11-24T16:37:26.630Z,6.63
2022-11-24T16:41:10.413Z,5.65
2022-11-24T16:44:52.399Z,7.03
2022-11-24T16:48:37.120Z,5.80
2022-11-24T16:52:19.053Z,4.50
2022-11-24T16:56:00.832Z,5.63
2022-11-24T16:59:46.226Z,5.82
2022-11-24T17:03:33.269Z,5.78
2022-11-24T17:07:15.536Z,5.60
2022-11-24T17:10:57.552Z,5.85
2022-11-24T17:14:39.315Z,6.60
2022-11-24T17:18:25.455Z,6.32
2022-11-24T17:22:07.503Z,7.27
2022-11-24T17:25:49.463Z,6.97
2022-11-24T17:29:31.278Z,8.98
2022-11-24T17:33:13.038Z,9.07
2022-11-24T17:36:54.766Z,9.50
2022-11-24T17:40:36.536Z,9.55
2022-11-24T17:44:18.254Z,8.68
2022-11-24T17:48:01.038Z,9.00
2022-11-24T17:51:42.905Z,8.48
2022-11-24T17:55:24.649Z,9.05
2022-11-24T17:59:06.421Z,8.85
2022-11-24T18:02:48.186Z,8.88
2022-11-24T18:06:29.967Z,8.43
2022-11-24T18:10:11.701Z,8.15
2022-11-24T18:14:00.798Z,7.53
2022-11-24T18:17:43.313Z,7.68
2022-11-24T18:21:25.663Z,8.15
2022-11-24T18:25:07.698Z,7.53
2022-11-24T18:28:49.493Z,7.47
2022-11-24T18:32:32.363Z,8.43
2022-11-24T18:36:17.839Z,7.35
2022-11-24T18:40:00.147Z,6.93
2022-11-24T18:43:42.456Z,6.57
2022-11-24T18:47:24.374Z,7.57
2022-11-24T18:51:08.362Z,10.40
2022-11-24T18:54:50.097Z,8.02
2022-11-24T18:58:33.650Z,9.85
2022-11-24T19:02:15.464Z,8.77
2022-11-24T19:06:00.892Z,8.32
2022-11-24T19:09:44.028Z,9.82
2022-11-24T19:13:25.826Z,9.65
2022-11-24T19:17:07.810Z,10.48
2022-11-24T19:20:49.915Z,8.30
2022-11-24T19:24:31.728Z,10.23
2022-11-24T19:28:13.433Z,9.85
2022-11-24T19:31:55.486Z,10.45
2022-11-24T19:35:37.261Z,9.23
2022-11-24T19:39:19.133Z,8.90
2022-11-24T19:43:00.985Z,9.32
2022-11-24T19:46:42.750Z,9.38
2022-11-24T19:50:24.482Z,11.13
2022-11-24T19:54:08.442Z,10.57
2022-11-24T19:57:50.195Z,9.68
2022-11-24T20:01:37.123Z,8.45
2022-11-24T20:05:18.974Z,7.43
2022-11-24T20:09:01.465Z,6.78
2022-11-24T20:12:43.228Z,6.50
2022-11-24T20:16:29.540Z,5.18
2022-11-24T20:20:11.926Z,4.80
2022-11-24T20:23:56.702Z,5.75
2022-11-24T20:27:38.485Z,5.30
2022-11-24T20:31:23.889Z,5.10
2022-11-24T20:35:06.089Z,6.22
2022-11-24T20:38:48.956Z,6.35
2022-11-24T20:42:31.553Z,6.60
2022-11-24T20:46:21.096Z,6.45
2022-11-24T20:50:02.850Z,6.47
2022-11-24T20:53:44.586Z,5.25
2022-11-24T20:57:26.344Z,7.38
2022-11-24T21:01:19.729Z,4.70
2022-11-24T21:05:01.576Z,5.65
2022-11-24T21:08:43.485Z,5.45
2022-11-24T21:12:25.216Z,6.15
2022-11-24T21:16:14.724Z,5.97
2022-11-24T21:20:00.852Z,7.03
2022-11-24T21:23:45.075Z,6.50
2022-11-24T21:27:27.194Z,5.95
2022-11-24T21:31:14.578Z,4.80
2022-11-24T21:34:56.464Z,5.20
2022-11-24T21:38:38.297Z,4.30
2022-11-24T21:42:20.260Z,4.57
2022-11-24T21:46:03.579Z,5.45
2022-11-24T21:49:45.363Z,5.30
2022-11-24T21:53:30.467Z,6.70
2022-11-24T21:57:12.213Z,6.30
2022-11-24T22:00:54.020Z,6.97
2022-11-24T22:04:36.050Z,7.25
2022-11-24T22:08:17.841Z,7.10
2022-11-24T22:12:00.233Z,7.47
2022-11-24T22:15:42.267Z,8.27
2022-11-24T22:19:24.181Z,7.13
2022-11-24T22:23:05.968Z,8.45
2022-11-24T22:26:48.072Z,8.18
2022-11-24T22:30:29.842Z,7.43
2022-11-24T22:34:11.566Z,7.13
2022-11-24T22:37:53.365Z,6.38
2022-11-24T22:41:35.867Z,6.63
2022-11-24T22:45:17.592Z,6.20
2022-11-24T22:49:00.608Z,6.32
2022-11-24T22:52:42.298Z,6.25
2022-11-24T22:56:24.974Z,5.07
2022-11-24T23:00:08.323Z,5.20
2022-11-24T23:03:51.249Z,5.15
2022-11-24T23:07:33.093Z,4.85
2022-11-24T23:11:23.683Z,4.30
2022-11-24T23:15:08.109Z,5.30
2022-11-24T23:18:53.984Z,4.80
2022-11-24T23:22:35.920Z,5.47
2022-11-24T23:26:20.814Z,4.55
2022-11-24T23:30:03.516Z,4.35
2022-11-24T23:33:45.787Z,4.50
2022-11-24T23:37:52.201Z,4.53
2022-11-24T23:41:30.437Z,4.78
2022-11-24T23:45:12.153Z,4.30
2022-11-24T23:48:55.044Z,4.13
2022-11-24T23:52:36.787Z,6.40
2022-11-24T23:56:21.158Z,4.65
